createdAt,value
2018-11-28T00:01:04.613Z,97618.00
2018-11-28T00:03:34.914Z,97610.00
2018-11-28T00:06:05.349Z,97610.00
2018-11-28T00:08:36.041Z,97623.00
2018-11-28T00:11:06.601Z,97624.00
2018-11-28T00:13:37.056Z,97618.00
2018-11-28T00:16:08.336Z,97622.00
2018-11-28T00:18:38.709Z,97617.00
2018-11-28T00:21:09.115Z,97623.00
2018-11-28T00:23:39.452Z,97621.00
2018-11-28T00:26:09.781Z,97627.00
2018-11-28T00:28:40.245Z,97631.00
2018-11-28T00:31:10.519Z,97629.00
2018-11-28T00:33:41.958Z,97632.00
2018-11-28T00:36:12.401Z,97630.00
2018-11-28T00:38:42.754Z,97629.00
2018-11-28T00:41:13.046Z,97634.00
2018-11-28T00:43:43.353Z,97614.00
2018-11-28T00:46:13.696Z,97622.00
2018-11-28T00:48:44.169Z,97624.00
2018-11-28T00:51:14.691Z,97622.00
2018-11-28T00:53:44.909Z,97633.00
2018-11-28T00:56:15.378Z,97625.00
2018-11-28T00:58:45.748Z,97623.00
2018-11-28T01:01:16.155Z,97628.00
2018-11-28T01:03:46.365Z,97628.00
2018-11-28T01:06:16.776Z,97632.00
2018-11-28T01:08:46.924Z,97629.00
2018-11-28T01:11:17.137Z,97626.00
2018-11-28T01:13:47.432Z,97633.00
2018-11-28T01:16:20.575Z,97646.00
2018-11-28T01:18:50.989Z,97647.00
2018-11-28T01:21:21.307Z,97644.00
2018-11-28T01:23:51.669Z,97648.00
2018-11-28T01:26:22.162Z,97642.00
2018-11-28T01:28:52.552Z,97648.00
2018-11-28T01:31:23.384Z,97647.00
2018-11-28T01:33:53.757Z,97652.00
2018-11-28T01:36:24.154Z,97651.00
2018-11-28T01:38:54.444Z,97649.00
2018-11-28T01:41:24.721Z,97643.00
2018-11-28T01:43:55.077Z,97651.00
2018-11-28T01:46:25.469Z,97662.00
2018-11-28T01:48:55.821Z,97661.00
2018-11-28T01:51:26.209Z,97657.00
2018-11-28T01:53:56.554Z,97654.00
2018-11-28T01:56:26.849Z,97652.00
2018-11-28T01:58:57.352Z,97649.00
2018-11-28T02:01:27.502Z,97652.00
2018-11-28T02:03:57.890Z,97654.00
2018-11-28T02:06:28.165Z,97667.00
2018-11-28T02:08:58.475Z,97661.00
2018-11-28T02:11:28.801Z,97674.00
2018-11-28T02:13:59.500Z,97674.00
2018-11-28T02:16:29.824Z,97671.00
2018-11-28T02:19:00.079Z,97681.00
2018-11-28T02:21:30.549Z,97677.00
2018-11-28T02:24:00.848Z,97676.00
2018-11-28T02:26:31.270Z,97688.00
2018-11-28T02:29:01.476Z,97679.00
2018-11-28T02:31:31.855Z,97684.00
2018-11-28T02:34:02.285Z,97678.00
2018-11-28T02:36:32.516Z,97688.00
2018-11-28T02:39:02.910Z,97681.00
2018-11-28T02:41:33.204Z,97688.00
2018-11-28T02:44:03.686Z,97689.00
2018-11-28T02:46:33.918Z,97699.00
2018-11-28T02:49:04.339Z,97698.00
2018-11-28T02:51:34.659Z,97697.00
2018-11-28T02:54:05.277Z,97696.00
2018-11-28T02:56:35.682Z,97696.00
2018-11-28T02:59:05.880Z,97699.00
2018-11-28T03:01:36.265Z,97716.00
2018-11-28T03:04:06.814Z,97709.00
2018-11-28T03:06:37.270Z,97713.00
2018-11-28T03:09:09.602Z,97734.00
2018-11-28T03:11:39.961Z,97731.00
2018-11-28T03:14:10.231Z,97725.00
2018-11-28T03:16:40.541Z,97739.00
2018-11-28T03:19:10.888Z,97733.00
2018-11-28T03:21:41.318Z,97736.00
2018-11-28T03:24:11.624Z,97734.00
2018-11-28T03:26:41.913Z,97737.00
2018-11-28T03:29:12.309Z,97743.00
2018-11-28T03:31:42.690Z,97740.00
2018-11-28T03:34:13.953Z,97742.00
2018-11-28T03:36:44.282Z,97744.00
2018-11-28T03:39:14.734Z,97746.00
2018-11-28T03:41:44.876Z,97756.00
2018-11-28T03:44:15.247Z,97757.00
2018-11-28T03:46:45.654Z,97756.00
2018-11-28T03:49:16.119Z,97761.00
2018-11-28T03:51:46.384Z,97764.00
2018-11-28T03:54:16.631Z,97767.00
2018-11-28T03:56:46.958Z,97777.00
2018-11-28T03:59:17.434Z,97782.00
2018-11-28T04:01:47.694Z,97779.00
2018-11-28T04:04:18.713Z,97782.00
2018-11-28T04:06:49.056Z,97785.00
2018-11-28T04:09:19.328Z,97784.00
2018-11-28T04:11:49.479Z,97788.00
2018-11-28T04:14:19.742Z,97794.00
2018-11-28T04:16:50.065Z,97787.00
2018-11-28T04:19:20.317Z,97793.00
2018-11-28T04:21:50.544Z,97796.00
2018-11-28T04:24:20.907Z,97792.00
2018-11-28T04:26:51.072Z,97798.00
2018-11-28T04:29:21.418Z,97803.00
2018-11-28T04:31:51.576Z,97801.00
2018-11-28T04:34:21.950Z,97802.00
2018-11-28T04:36:52.431Z,97816.00
2018-11-28T04:39:22.614Z,97813.00
2018-11-28T04:41:52.952Z,97815.00
2018-11-28T04:44:23.270Z,97822.00
2018-11-28T04:46:53.458Z,97824.00
2018-11-28T04:49:23.776Z,97824.00
2018-11-28T04:51:54.140Z,97827.00
2018-11-28T04:54:24.554Z,97831.00
2018-11-28T04:56:54.874Z,97827.00
2018-11-28T04:59:25.054Z,97819.00
2018-11-28T05:01:55.311Z,97825.00
2018-11-28T05:04:25.741Z,97823.00
2018-11-28T05:07:28.871Z,97829.00
2018-11-28T05:09:59.982Z,97841.00
2018-11-28T05:12:30.360Z,97840.00
2018-11-28T05:15:00.537Z,97840.00
2018-11-28T05:17:30.844Z,97847.00
2018-11-28T05:20:01.290Z,97853.00
2018-11-28T05:22:31.700Z,97862.00
2018-11-28T05:25:01.899Z,97865.00
2018-11-28T05:27:32.217Z,97871.00
2018-11-28T05:30:02.825Z,97868.00
2018-11-28T05:32:33.200Z,97875.00
2018-11-28T05:35:03.545Z,97874.00
2018-11-28T05:37:33.853Z,97868.00
2018-11-28T05:40:04.252Z,97875.00
2018-11-28T05:42:34.341Z,97877.00
2018-11-28T05:45:04.858Z,97878.00
2018-11-28T05:47:35.145Z,97875.00
2018-11-28T05:50:09.313Z,97886.00
2018-11-28T05:52:39.695Z,97887.00
2018-11-28T05:55:12.501Z,97889.00
2018-11-28T05:57:44.014Z,97896.00
2018-11-28T06:00:20.874Z,97899.00
2018-11-28T06:02:51.333Z,97909.00
2018-11-28T06:05:21.598Z,97911.00
2018-11-28T06:07:51.878Z,97913.00
2018-11-28T06:10:22.238Z,97923.00
2018-11-28T06:12:52.634Z,97934.00
2018-11-28T06:15:22.876Z,97944.00
2018-11-28T06:17:53.201Z,97953.00
2018-11-28T06:20:23.652Z,97952.00
2018-11-28T06:22:53.800Z,97955.00
2018-11-28T06:25:24.287Z,97957.00
2018-11-28T06:27:54.557Z,97961.00
2018-11-28T06:30:25.036Z,97976.00
2018-11-28T06:32:55.202Z,97974.00
2018-11-28T06:35:25.593Z,97981.00
2018-11-28T06:37:56.501Z,97991.00
2018-11-28T06:40:27.057Z,97986.00
2018-11-28T06:42:57.337Z,97991.00
2018-11-28T06:45:27.475Z,98007.00
2018-11-28T06:47:57.714Z,98018.00
2018-11-28T06:50:28.076Z,98013.00
2018-11-28T06:52:58.663Z,98009.00
2018-11-28T06:55:29.317Z,98031.00
2018-11-28T06:57:59.520Z,98042.00
2018-11-28T07:00:29.857Z,98047.00
2018-11-28T07:03:00.195Z,98039.00
2018-11-28T07:05:30.496Z,98046.00
2018-11-28T07:08:00.786Z,98060.00
2018-11-28T07:10:31.034Z,98074.00
2018-11-28T07:13:01.514Z,98076.00
2018-11-28T07:15:31.816Z,98086.00
2018-11-28T07:18:18.495Z,98090.00
2018-11-28T07:20:48.738Z,98094.00
2018-11-28T07:23:19.175Z,98099.00
2018-11-28T07:25:49.599Z,98104.00
2018-11-28T07:28:19.854Z,98112.00
2018-11-28T07:30:50.015Z,98115.00
2018-11-28T07:33:25.245Z,98124.00
2018-11-28T07:35:55.568Z,98119.00
2018-11-28T07:38:26.032Z,98126.00
2018-11-28T07:40:56.146Z,98124.00
2018-11-28T07:43:27.009Z,98129.00
2018-11-28T07:45:57.310Z,98129.00
2018-11-28T07:48:27.491Z,98131.00
2018-11-28T07:50:57.871Z,98135.00
2018-11-28T07:53:28.353Z,98138.00
2018-11-28T07:55:58.803Z,98138.00
2018-11-28T07:58:29.038Z,98147.00
2018-11-28T08:00:59.326Z,98156.00
2018-11-28T08:03:29.754Z,98158.00
2018-11-28T08:06:00.194Z,98164.00
2018-11-28T08:08:34.506Z,98162.00
2018-11-28T08:11:05.000Z,98167.00
2018-11-28T08:13:36.266Z,98177.00
2018-11-28T08:16:06.674Z,98171.00
2018-11-28T08:18:37.020Z,98175.00
2018-11-28T08:21:07.981Z,98180.00
2018-11-28T08:23:38.384Z,98181.00
2018-11-28T08:26:08.860Z,98188.00
2018-11-28T08:28:39.137Z,98190.00
2018-11-28T08:31:10.057Z,98190.00
2018-11-28T08:33:39.889Z,98196.00
2018-11-28T08:36:10.394Z,98195.00
2018-11-28T08:38:40.760Z,98196.00
2018-11-28T08:41:11.089Z,98205.00
2018-11-28T08:43:41.374Z,98211.00
2018-11-28T08:46:11.756Z,98213.00
2018-11-28T08:48:41.997Z,98219.00
2018-11-28T08:51:12.361Z,98216.00
2018-11-28T08:53:42.803Z,98231.00
2018-11-28T08:56:12.983Z,98233.00
2018-11-28T08:58:43.154Z,98229.00
2018-11-28T09:01:13.333Z,98242.00
2018-11-28T09:03:43.565Z,98239.00
2018-11-28T09:06:14.031Z,98245.00
2018-11-28T09:08:44.155Z,98244.00
2018-11-28T09:11:14.461Z,98248.00
2018-11-28T09:13:44.833Z,98251.00
2018-11-28T09:16:15.143Z,98249.00
2018-11-28T09:18:45.377Z,98247.00
2018-11-28T09:21:18.579Z,98245.00
2018-11-28T09:23:48.858Z,98251.00
2018-11-28T09:26:19.062Z,98250.00
2018-11-28T09:28:49.848Z,98248.00
2018-11-28T09:31:20.186Z,98243.00
2018-11-28T09:33:50.457Z,98247.00
2018-11-28T09:36:20.690Z,98250.00
2018-11-28T09:38:50.935Z,98250.00
2018-11-28T09:41:21.353Z,98256.00
2018-11-28T09:43:51.761Z,98248.00
2018-11-28T09:46:21.948Z,98249.00
2018-11-28T09:48:52.338Z,98251.00
2018-11-28T09:51:22.745Z,98252.00
2018-11-28T09:53:53.261Z,98249.00
2018-11-28T09:56:23.665Z,98249.00
2018-11-28T09:58:54.031Z,98247.00
2018-11-28T10:01:24.373Z,98254.00
2018-11-28T10:03:54.755Z,98257.00
2018-11-28T10:06:25.049Z,98250.00
2018-11-28T10:08:55.377Z,98246.00
2018-11-28T10:11:25.644Z,98255.00
2018-11-28T10:13:56.057Z,98251.00
2018-11-28T10:16:26.333Z,98250.00
2018-11-28T10:18:56.698Z,98256.00
2018-11-28T10:21:27.173Z,98245.00
2018-11-28T10:23:57.609Z,98245.00
2018-11-28T10:26:27.919Z,98248.00
2018-11-28T10:28:58.324Z,98249.00
2018-11-28T10:31:28.646Z,98247.00
2018-11-28T10:33:59.086Z,98256.00
2018-11-28T10:36:29.535Z,98250.00
2018-11-28T10:38:59.764Z,98257.00
2018-11-28T10:41:30.128Z,98266.00
2018-11-28T10:44:00.685Z,98259.00
2018-11-28T10:46:31.064Z,98253.00
2018-11-28T10:49:01.309Z,98249.00
2018-11-28T10:51:31.572Z,98252.00
2018-11-28T10:54:01.914Z,98246.00
2018-11-28T10:56:32.226Z,98250.00
2018-11-28T10:59:02.485Z,98255.00
2018-11-28T11:01:32.812Z,98250.00
2018-11-28T11:04:08.332Z,98255.00
2018-11-28T11:06:43.490Z,98250.00
2018-11-28T11:09:18.734Z,98247.00
2018-11-28T11:11:53.949Z,98240.00
2018-11-28T11:14:29.269Z,98237.00
2018-11-28T11:16:59.585Z,98243.00
2018-11-28T11:19:30.077Z,98240.00
2018-11-28T11:22:00.467Z,98236.00
2018-11-28T11:24:30.894Z,98240.00
2018-11-28T11:27:01.217Z,98244.00
2018-11-28T11:29:31.370Z,98248.00
2018-11-28T11:32:01.790Z,98241.00
2018-11-28T11:34:32.202Z,98249.00
2018-11-28T11:37:02.526Z,98254.00
2018-11-28T11:39:32.788Z,98245.00
2018-11-28T11:42:02.979Z,98260.00
2018-11-28T11:44:33.308Z,98241.00
2018-11-28T11:47:03.623Z,98257.00
2018-11-28T11:49:34.031Z,98251.00
2018-11-28T11:52:04.426Z,98244.00
2018-11-28T11:54:34.619Z,98249.00
2018-11-28T11:57:05.039Z,98246.00
2018-11-28T11:59:35.421Z,98237.00
2018-11-28T12:02:05.816Z,98242.00
2018-11-28T12:04:36.098Z,98245.00
2018-11-28T12:07:06.475Z,98251.00
2018-11-28T12:09:36.902Z,98243.00
2018-11-28T12:12:07.375Z,98245.00
2018-11-28T12:14:37.634Z,98247.00
2018-11-28T12:17:08.173Z,98238.00
2018-11-28T12:19:38.718Z,98245.00
2018-11-28T12:22:09.125Z,98248.00
2018-11-28T12:24:39.400Z,98245.00
2018-11-28T12:27:09.725Z,98243.00
2018-11-28T12:29:40.148Z,98237.00
2018-11-28T12:32:10.485Z,98245.00
2018-11-28T12:34:40.666Z,98246.00
2018-11-28T12:37:11.000Z,98247.00
2018-11-28T12:39:41.433Z,98248.00
2018-11-28T12:42:12.045Z,98245.00
2018-11-28T12:44:42.498Z,98246.00
2018-11-28T12:47:12.696Z,98251.00
2018-11-28T12:49:43.061Z,98238.00
2018-11-28T12:52:13.372Z,98247.00
2018-11-28T12:54:43.881Z,98242.00
2018-11-28T12:57:14.070Z,98248.00
2018-11-28T12:59:44.531Z,98238.00
2018-11-28T13:02:15.021Z,98233.00
2018-11-28T13:04:45.500Z,98234.00
2018-11-28T13:07:15.797Z,98229.00
2018-11-28T13:09:46.095Z,98232.00
2018-11-28T13:12:16.349Z,98233.00
2018-11-28T13:14:46.822Z,98228.00
2018-11-28T13:17:17.088Z,98225.00
2018-11-28T13:19:47.434Z,98230.00
2018-11-28T13:22:17.889Z,98232.00
2018-11-28T13:24:48.162Z,98239.00
2018-11-28T13:27:18.512Z,98242.00
2018-11-28T13:29:48.694Z,98244.00
2018-11-28T13:32:19.062Z,98244.00
2018-11-28T13:34:49.300Z,98244.00
2018-11-28T13:37:19.505Z,98243.00
2018-11-28T13:39:49.769Z,98247.00
2018-11-28T13:42:19.856Z,98251.00
2018-11-28T13:44:50.180Z,98251.00
2018-11-28T13:47:20.513Z,98261.00
2018-11-28T13:49:50.841Z,98253.00
2018-11-28T13:52:21.070Z,98255.00
2018-11-28T13:55:37.844Z,98255.00
2018-11-28T13:57:22.189Z,98257.00
2018-11-28T13:59:52.107Z,98257.00
2018-11-28T14:02:22.429Z,98250.00
2018-11-28T14:04:52.861Z,98254.00
2018-11-28T14:07:23.503Z,98260.00
2018-11-28T14:09:53.825Z,98258.00
2018-11-28T14:12:24.116Z,98265.00
2018-11-28T14:14:54.522Z,98270.00
2018-11-28T14:17:24.807Z,98270.00
2018-11-28T14:19:55.258Z,98270.00
2018-11-28T14:22:25.433Z,98269.00
2018-11-28T14:24:55.749Z,98278.00
2018-11-28T14:27:26.044Z,98274.00
2018-11-28T14:29:56.300Z,98274.00
2018-11-28T14:32:26.731Z,98283.00
2018-11-28T14:34:57.189Z,98286.00
2018-11-28T14:37:27.999Z,98294.00
2018-11-28T14:39:58.297Z,98291.00
2018-11-28T14:42:28.609Z,98299.00
2018-11-28T14:44:58.892Z,98302.00
2018-11-28T14:47:29.354Z,98302.00
2018-11-28T14:50:00.594Z,98308.00
2018-11-28T14:52:30.896Z,98306.00
2018-11-28T14:55:01.140Z,98311.00
2018-11-28T14:57:31.476Z,98310.00
2018-11-28T15:00:01.743Z,98315.00
2018-11-28T15:02:32.120Z,98314.00
2018-11-28T15:05:02.451Z,98316.00
2018-11-28T15:07:33.329Z,98325.00
2018-11-28T15:10:03.704Z,98325.00
2018-11-28T15:12:33.882Z,98322.00
2018-11-28T15:15:04.387Z,98326.00
2018-11-28T15:17:34.872Z,98335.00
2018-11-28T15:20:06.224Z,98339.00
2018-11-28T15:22:36.518Z,98337.00
2018-11-28T15:25:09.746Z,98335.00
2018-11-28T15:27:40.005Z,98351.00
2018-11-28T15:30:10.737Z,98344.00
2018-11-28T15:32:41.028Z,98348.00
2018-11-28T15:35:11.428Z,98350.00
2018-11-28T15:37:41.711Z,98350.00
2018-11-28T15:40:12.103Z,98358.00
2018-11-28T15:42:42.660Z,98359.00
2018-11-28T15:45:12.902Z,98364.00
2018-11-28T15:47:43.272Z,98367.00
2018-11-28T15:50:13.562Z,98365.00
2018-11-28T15:52:44.037Z,98368.00
2018-11-28T15:55:14.702Z,98372.00
2018-11-28T15:57:44.930Z,98371.00
2018-11-28T16:00:24.968Z,98375.00
2018-11-28T16:02:55.668Z,98377.00
2018-11-28T16:05:25.992Z,98381.00
2018-11-28T16:07:56.429Z,98385.00
2018-11-28T16:10:34.146Z,98392.00
2018-11-28T16:13:04.542Z,98401.00
2018-11-28T16:15:39.811Z,98401.00
2018-11-28T16:18:10.202Z,98407.00
2018-11-28T16:20:40.909Z,98410.00
2018-11-28T16:23:11.345Z,98422.00
2018-11-28T16:25:41.696Z,98420.00
2018-11-28T16:28:12.599Z,98418.00
2018-11-28T16:30:42.577Z,98425.00
2018-11-28T16:33:12.877Z,98420.00
2018-11-28T16:35:43.272Z,98431.00
2018-11-28T16:38:13.606Z,98434.00
2018-11-28T16:40:43.926Z,98431.00
2018-11-28T16:43:14.320Z,98432.00
2018-11-28T16:45:44.782Z,98441.00
2018-11-28T16:48:15.231Z,98443.00
2018-11-28T16:50:45.477Z,98444.00
2018-11-28T16:53:15.769Z,98444.00
2018-11-28T16:55:46.276Z,98446.00
2018-11-28T16:58:16.471Z,98455.00
2018-11-28T17:00:47.003Z,98452.00
2018-11-28T17:03:17.371Z,98460.00
2018-11-28T17:05:47.798Z,98458.00
2018-11-28T17:08:18.085Z,98464.00
2018-11-28T17:10:48.466Z,98465.00
2018-11-28T17:13:18.774Z,98468.00
2018-11-28T17:15:49.157Z,98475.00
2018-11-28T17:18:19.448Z,98477.00
2018-11-28T17:20:49.744Z,98479.00
2018-11-28T17:23:19.925Z,98477.00
2018-11-28T17:25:50.322Z,98480.00
2018-11-28T17:28:20.534Z,98486.00
2018-11-28T17:30:51.050Z,98485.00
2018-11-28T17:33:21.250Z,98490.00
2018-11-28T17:35:51.565Z,98483.00
2018-11-28T17:38:21.959Z,98489.00
2018-11-28T17:40:52.273Z,98493.00
2018-11-28T17:43:22.593Z,98488.00
2018-11-28T17:45:53.104Z,98492.00
2018-11-28T17:48:23.376Z,98500.00
2018-11-28T17:50:53.694Z,98500.00
2018-11-28T17:53:23.869Z,98503.00
2018-11-28T17:55:56.250Z,98502.00
2018-11-28T17:58:26.421Z,98507.00
2018-11-28T18:00:56.789Z,98507.00
2018-11-28T18:03:27.080Z,98509.00
2018-11-28T18:05:57.524Z,98520.00
2018-11-28T18:08:27.852Z,98524.00
2018-11-28T18:11:10.465Z,98528.00
2018-11-28T18:13:40.710Z,98528.00
2018-11-28T18:16:11.899Z,98534.00
2018-11-28T18:18:41.508Z,98527.00
2018-11-28T18:21:11.897Z,98529.00
2018-11-28T18:23:42.105Z,98524.00
2018-11-28T18:26:14.765Z,98524.00
2018-11-28T18:28:45.117Z,98532.00
2018-11-28T18:31:15.412Z,98529.00
2018-11-28T18:33:45.614Z,98527.00
2018-11-28T18:36:15.876Z,98531.00
2018-11-28T18:38:46.478Z,98534.00
2018-11-28T18:41:16.657Z,98533.00
2018-11-28T18:43:47.073Z,98532.00
2018-11-28T18:46:20.302Z,98537.00
2018-11-28T18:48:50.657Z,98538.00
2018-11-28T18:51:20.943Z,98534.00
2018-11-28T18:53:51.130Z,98525.00
2018-11-28T18:56:21.375Z,98546.00
2018-11-28T18:58:52.001Z,98537.00
2018-11-28T19:01:22.200Z,98550.00
2018-11-28T19:03:52.714Z,98552.00
2018-11-28T19:06:23.039Z,98558.00
2018-11-28T19:08:53.336Z,98559.00
2018-11-28T19:11:23.701Z,98558.00
2018-11-28T19:13:54.003Z,98565.00
2018-11-28T19:16:24.242Z,98568.00
2018-11-28T19:18:54.933Z,98561.00
2018-11-28T19:21:25.146Z,98567.00
2018-11-28T19:23:55.474Z,98568.00
2018-11-28T19:26:25.836Z,98576.00
2018-11-28T19:28:56.100Z,98575.00
2018-11-28T19:31:26.205Z,98577.00
2018-11-28T19:33:56.630Z,98580.00
2018-11-28T19:36:26.702Z,98580.00
2018-11-28T19:38:57.233Z,98581.00
2018-11-28T19:41:28.285Z,98584.00
2018-11-28T19:43:58.753Z,98590.00
2018-11-28T19:46:28.988Z,98592.00
2018-11-28T19:48:59.434Z,98587.00
2018-11-28T19:51:29.609Z,98594.00
2018-11-28T19:53:59.894Z,98595.00
2018-11-28T19:56:30.206Z,98602.00
2018-11-28T19:59:00.592Z,98601.00
2018-11-28T20:01:30.840Z,98601.00
2018-11-28T20:04:01.385Z,98602.00
2018-11-28T20:06:31.869Z,98608.00
2018-11-28T20:09:02.185Z,98604.00
2018-11-28T20:11:32.713Z,98606.00
2018-11-28T20:14:03.162Z,98604.00
2018-11-28T20:16:33.404Z,98604.00
2018-11-28T20:19:03.919Z,98604.00
2018-11-28T20:21:34.235Z,98606.00
2018-11-28T20:24:04.558Z,98609.00
2018-11-28T20:26:35.025Z,98607.00
2018-11-28T20:29:05.426Z,98608.00
2018-11-28T20:31:35.779Z,98600.00
2018-11-28T20:34:06.370Z,98603.00
2018-11-28T20:36:36.797Z,98606.00
2018-11-28T20:39:10.003Z,98610.00
2018-11-28T20:41:40.484Z,98618.00
2018-11-28T20:44:10.781Z,98610.00
2018-11-28T20:46:41.241Z,98611.00
2018-11-28T20:49:11.575Z,98618.00
2018-11-28T20:51:41.881Z,98614.00
2018-11-28T20:54:12.817Z,98613.00
2018-11-28T20:56:43.218Z,98616.00
2018-11-28T20:59:13.612Z,98620.00
2018-11-28T21:01:43.844Z,98624.00
2018-11-28T21:04:14.261Z,98624.00
2018-11-28T21:06:49.897Z,98623.00
2018-11-28T21:09:20.193Z,98618.00
2018-11-28T21:11:50.431Z,98617.00
2018-11-28T21:14:20.746Z,98611.00
2018-11-28T21:16:51.133Z,98613.00
2018-11-28T21:19:21.244Z,98619.00
2018-11-28T21:21:51.652Z,98628.00
2018-11-28T21:24:21.978Z,98624.00
2018-11-28T21:26:52.360Z,98631.00
2018-11-28T21:29:22.773Z,98631.00
2018-11-28T21:31:53.136Z,98634.00
2018-11-28T21:34:23.486Z,98635.00
2018-11-28T21:36:55.012Z,98637.00
2018-11-28T21:39:25.465Z,98640.00
2018-11-28T21:41:55.735Z,98636.00
2018-11-28T21:44:26.188Z,98642.00
2018-11-28T21:46:56.617Z,98647.00
2018-11-28T21:49:26.840Z,98646.00
2018-11-28T21:51:57.050Z,98644.00
2018-11-28T21:54:27.492Z,98645.00
2018-11-28T21:56:57.686Z,98651.00
2018-11-28T21:59:28.048Z,98655.00
2018-11-28T22:01:58.561Z,98653.00
2018-11-28T22:04:28.869Z,98655.00
2018-11-28T22:06:59.227Z,98649.00
2018-11-28T22:09:33.532Z,98649.00
2018-11-28T22:12:03.100Z,98649.00
2018-11-28T22:14:33.500Z,98652.00
2018-11-28T22:17:03.904Z,98656.00
2018-11-28T22:19:34.120Z,98657.00
2018-11-28T22:22:04.428Z,98663.00
2018-11-28T22:24:34.993Z,98665.00
2018-11-28T22:27:05.284Z,98667.00
2018-11-28T22:29:35.622Z,98677.00
2018-11-28T22:32:05.811Z,98674.00
2018-11-28T22:34:36.208Z,98676.00
2018-11-28T22:37:06.470Z,98673.00
2018-11-28T22:39:36.880Z,98673.00
2018-11-28T22:42:07.264Z,98672.00
2018-11-28T22:44:37.580Z,98667.00
2018-11-28T22:47:07.907Z,98670.00
2018-11-28T22:49:38.220Z,98663.00
2018-11-28T22:52:08.645Z,98663.00
2018-11-28T22:54:39.018Z,98664.00
2018-11-28T22:57:09.401Z,98665.00
2018-11-28T22:59:39.769Z,98670.00
2018-11-28T23:03:13.189Z,98666.00
2018-11-28T23:05:46.169Z,98665.00
2018-11-28T23:08:18.001Z,98667.00
2018-11-28T23:10:48.625Z,98670.00
2018-11-28T23:13:22.936Z,98663.00
2018-11-28T23:15:53.305Z,98668.00
2018-11-28T23:18:23.671Z,98667.00
2018-11-28T23:20:53.992Z,98676.00
2018-11-28T23:23:24.343Z,98674.00
2018-11-28T23:25:54.512Z,98673.00
2018-11-28T23:28:24.924Z,98668.00
2018-11-28T23:30:55.205Z,98668.00
2018-11-28T23:33:25.518Z,98663.00
2018-11-28T23:35:55.844Z,98667.00
2018-11-28T23:38:26.186Z,98667.00
2018-11-28T23:40:56.615Z,98665.00
2018-11-28T23:43:26.857Z,98663.00
2018-11-28T23:45:57.259Z,98665.00
2018-11-28T23:48:27.625Z,98670.00
2018-11-28T23:50:57.801Z,98674.00
2018-11-28T23:53:28.136Z,98665.00
2018-11-28T23:55:58.505Z,98669.00
2018-11-28T23:58:28.771Z,98663.00
